Flight Track Log - Related Links

Times and Time Zones

All times are in EDT time to prevent confusion due to time zone crossing. See the JBU171 flight status page for this flight to view local times or setup timezone preferences in your user account.

Time Position Orientation Groundspeed Altitude Reporting Facility
EDT Latitude Longitude Course Direction KTS MPH feet Rate Location/Type
Sun 07:56:32 PM 40.8176 -73.7667 166° South  Level FlightAware Approximate
Sun 07:57:16 PM 40.6167 -73.7000 16° North 214 246 2,300  Level New York TRACON
Sun 08:02:32 PM 40.9094 -73.5856 314° West 315 362 12,200 1,835 Climbing New York Center
Sun 08:03:32 PM 40.9758 -73.6761 331° Northwest 365 420 13,800 1,700 Climbing New York Center
Sun 08:04:32 PM 41.0700 -73.7464 301° West 390 449 15,600 1,800 Climbing New York Center
Sun 08:05:32 PM 41.1331 -73.8867 278° West 395 455 17,400 1,500 Climbing New York Center
Sun 08:06:32 PM 41.1481 -74.0253 258° West 412 474 18,600 1,339 Climbing New York Center
Sun 08:07:33 PM 41.1203 -74.1975 256° West 421 484 20,100 1,664 Climbing New York Center
Sun 08:08:31 PM 41.0903 -74.3611 254° West 429 494 21,900 1,475 Climbing New York Center
Sun 08:09:31 PM 41.0564 -74.5161 256° West 447 514 23,000 1,100 Climbing New York Center
Sun 08:10:31 PM 41.0261 -74.6794 255° West 455 524 24,100 1,140 Climbing New York Center
Sun 08:11:32 PM 40.9933 -74.8453 249° West 460 529 25,300 1,131 Climbing New York Center
Sun 08:12:33 PM 40.9483 -75.0019 238° Southwest 466 536 26,400 1,059 Climbing New York Center
Sun 08:13:31 PM 40.8783 -75.1483 237° Southwest 466 536 27,400 915 Climbing New York Center
Sun 08:14:31 PM 40.8061 -75.2972 238° Southwest 466 536 28,200 850 Climbing New York Center
Sun 08:15:31 PM 40.7494 -75.4169 245° Southwest 481 554 29,100 1,041 Climbing New York Center
Sun 08:16:32 PM 40.6858 -75.5958 244° Southwest 471 542 30,300 1,082 Climbing New York Center
Sun 08:17:33 PM 40.6319 -75.7397 245° Southwest 477 549 31,300 893 Climbing New York Center
Sun 08:18:33 PM 40.5778 -75.8917 241° Southwest 477 549 32,100 1,000 Climbing New York Center
Sun 08:19:33 PM 40.5075 -76.0611 243° Southwest 477 549 33,300 966 Climbing New York Center
Sun 08:20:31 PM 40.4508 -76.2094 243° Southwest 477 549 34,000 356 Climbing New York Center
Sun 08:21:31 PM 40.3939 -76.3578 244° Southwest 472 543 34,000  Level New York Center
Sun 08:22:32 PM 40.3367 -76.5083 252° West 467 537 34,000  Level New York Center
Sun 08:23:32 PM 40.2978 -76.6631 251° West 457 526 34,000  Level New York Center
Sun 08:24:33 PM 40.2561 -76.8253 251° West 457 526 34,000  Level New York Center
Sun 08:25:33 PM 40.2147 -76.9822 258° West 457 526 34,000  Level New York Center
Sun 08:27:30 PM 40.1597 -77.3067 269° West 457 526 34,000  Level Cleveland Center
Sun 08:28:30 PM 40.1581 -77.4669 267° West 457 526 34,000  Level Cleveland Center
Sun 08:29:30 PM 40.1519 -77.6331 268° West 457 526 34,000  Level Cleveland Center
Sun 08:30:30 PM 40.1478 -77.7964 266° West 457 526 34,000  Level Cleveland Center
Sun 08:31:30 PM 40.1408 -77.9406 267° West 457 526 34,000  Level Cleveland Center
Sun 08:32:30 PM 40.1342 -78.1064 267° West 457 526 34,000  Level Cleveland Center
Sun 08:33:30 PM 40.1269 -78.2697 269° West 462 532 34,000  Level Cleveland Center
Sun 08:34:30 PM 40.1239 -78.4328 268° West 462 532 34,000  Level Cleveland Center
Sun 08:35:30 PM 40.1186 -78.5958 266° West 462 532 34,000  Level Cleveland Center
Sun 08:36:30 PM 40.1108 -78.7561 267° West 462 532 34,000  Level Cleveland Center
Sun 08:37:30 PM 40.1050 -78.9192 268° West 457 526 34,000  Level Cleveland Center
Sun 08:38:30 PM 40.0992 -79.0983 266° West 462 532 34,000  Level Cleveland Center
Sun 08:39:30 PM 40.0908 -79.2614 269° West 462 532 34,000  Level Cleveland Center
Sun 08:40:30 PM 40.0883 -79.4244 267° West 462 532 34,000  Level Cleveland Center
Sun 08:41:30 PM 40.0817 -79.5819 267° West 462 532 34,000  Level Cleveland Center
Sun 08:42:30 PM 40.0744 -79.7475 266° West 457 526 34,000  Level Cleveland Center
Sun 08:43:30 PM 40.0653 -79.9050 267° West 457 526 34,000  Level Cleveland Center
Sun 08:44:30 PM 40.0578 -80.0706 266° West 457 526 34,000  Level Cleveland Center
Sun 08:45:30 PM 40.0500 -80.2306 266° West 457 526 34,000  Level Cleveland Center
Sun 08:46:30 PM 40.0419 -80.3742 266° West 452 520 34,000  Level Cleveland Center
Sun 08:47:30 PM 40.0339 -80.5342 266° West 452 520 34,000  Level Cleveland Center
Sun 08:48:30 PM 40.0256 -80.6942 266° West 452 520 34,000  Level Cleveland Center
Sun 08:49:30 PM 40.0167 -80.8569 269° West 447 514 34,000  Level Cleveland Center
Sun 08:51:34 PM 40.0128 -81.1881 268° West 437 503 34,000  Level Indianapolis Center
Sun 08:52:35 PM 40.0078 -81.3617 269° West 442 509 34,000  Level Indianapolis Center
Sun 08:53:35 PM 40.0044 -81.5244 269° West 442 509 34,000  Level Indianapolis Center
Sun 08:54:35 PM 40.0028 -81.6844 269° West 442 509 34,000 -50 Level Indianapolis Center
Sun 08:55:35 PM 40.0008 -81.8253 268° West 442 509 33,900  Descending Indianapolis Center
Sun 08:56:34 PM 39.9967 -81.9881 269° West 442 509 34,000 50 Climbing Indianapolis Center
Sun 08:57:35 PM 39.9947 -82.1506 267° West 447 514 34,000  Level Indianapolis Center
Sun 08:58:35 PM 39.9881 -82.3161 268° West 452 520 34,000  Level Indianapolis Center
Sun 08:59:35 PM 39.9836 -82.4894 268° West 452 520 34,000  Level Indianapolis Center
Sun 09:00:34 PM 39.9786 -82.6494 268° West 447 514 34,000 100 Level Indianapolis Center
Sun 09:01:35 PM 39.9736 -82.8094 268° West 447 514 34,200 446 Climbing Indianapolis Center
Sun 09:02:35 PM 39.9683 -82.9692 268° West 441 507 34,900 800 Climbing Indianapolis Center
Sun 09:03:35 PM 39.9647 -83.1292 268° West 441 507 35,800 555 Climbing Indianapolis Center
Sun 09:04:34 PM 39.9611 -83.2833 268° West 436 502 36,000 100 Climbing Indianapolis Center
Sun 09:05:35 PM 39.9572 -83.4406 267° West 436 502 36,000  Level Indianapolis Center
Sun 09:06:34 PM 39.9508 -83.6031 267° West 446 513 36,000  Level Indianapolis Center
Sun 09:07:35 PM 39.9444 -83.7600 266° West 452 520 36,000  Level Indianapolis Center
Sun 09:08:34 PM 39.9358 -83.9172 268° West 441 507 36,000  Level Indianapolis Center
Sun 09:09:35 PM 39.9311 -84.0742 267° West 441 507 36,000 -50 Level Indianapolis Center
Sun 09:10:34 PM 39.9239 -84.2311 266° West 441 507 35,900  Descending Indianapolis Center
Sun 09:11:35 PM 39.9147 -84.3906 267° West 441 507 36,000  Climbing Indianapolis Center
Sun 09:12:34 PM 39.9092 -84.5447 267° West 441 507 35,900 -50 Descending Indianapolis Center
Sun 09:13:34 PM 39.9017 -84.7072 267° West 441 507 35,900 50 Level Indianapolis Center
Sun 09:14:35 PM 39.8958 -84.8667 267° West 447 514 36,000 50 Climbing Indianapolis Center
Sun 09:15:35 PM 39.8900 -85.0100 265° West 447 514 36,000  Level Indianapolis Center
Sun 09:16:35 PM 39.8794 -85.1747 267° West 447 514 36,000  Level Indianapolis Center
Sun 09:17:35 PM 39.8731 -85.3317 266° West 452 520 36,000  Level Indianapolis Center
Sun 09:18:34 PM 39.8642 -85.4936 266° West 447 514 36,000  Level Indianapolis Center
Sun 09:19:35 PM 39.8553 -85.6531 267° West 447 514 36,000  Level Indianapolis Center
Sun 09:20:34 PM 39.8481 -85.8122 266° West 442 509 36,000  Level Indianapolis Center
Sun 09:21:34 PM 39.8389 -85.9661 266° West 442 509 36,000  Level Indianapolis Center
Sun 09:22:35 PM 39.8314 -86.1200 266° West 442 509 36,000  Level Indianapolis Center
Sun 09:23:35 PM 39.8217 -86.2792 268° West 442 509 36,000 -50 Level Indianapolis Center
Sun 09:24:34 PM 39.8178 -86.4467 251° West 442 509 35,900  Descending Indianapolis Center
Sun 09:25:35 PM 39.7786 -86.5908 245° Southwest 442 509 36,000 50 Climbing Indianapolis Center
Sun 09:26:35 PM 39.7269 -86.7317 245° Southwest 442 509 36,000  Level Indianapolis Center
Sun 09:27:35 PM 39.6772 -86.8725 246° West 437 503 36,000  Level Indianapolis Center
Sun 09:28:34 PM 39.6272 -87.0156 245° Southwest 442 509 36,000  Level Indianapolis Center
Sun 09:29:35 PM 39.5772 -87.1561 244° Southwest 437 503 36,000  Level Indianapolis Center
Sun 09:30:34 PM 39.5225 -87.3039 248° West 437 503 36,000  Level Indianapolis Center
Sun 09:32:35 PM 39.4383 -87.5714 247° West 418 481 36,000  Level Kansas City Center
Sun 09:33:35 PM 39.3922 -87.7131 246° West 424 488 36,000  Level Kansas City Center
Sun 09:34:35 PM 39.3458 -87.8489 247° West 424 488 36,000  Level Kansas City Center
Sun 09:35:35 PM 39.2992 -87.9875 247° West 424 488 36,000  Level Kansas City Center
Sun 09:36:35 PM 39.2525 -88.1283 246° West 429 494 36,000  Level Kansas City Center
Sun 09:37:35 PM 39.2056 -88.2664 246° West 429 494 36,000  Level Kansas City Center
Sun 09:38:35 PM 39.1567 -88.4072 248° West 429 494 36,000  Level Kansas City Center
Sun 09:39:35 PM 39.1117 -88.5475 246° West 429 494 36,000  Level Kansas City Center
Sun 09:40:35 PM 39.0642 -88.6853 247° West 429 494 36,000  Level Kansas City Center
Sun 09:41:35 PM 39.0169 -88.8281 249° West 429 494 36,000  Level Kansas City Center
Sun 09:42:35 PM 38.9756 -88.9700 248° West 429 494 36,000 50 Level Kansas City Center
Sun 09:43:35 PM 38.9264 -89.1286 258° West 429 494 36,100  Climbing Kansas City Center
Sun 09:44:35 PM 38.9033 -89.2664 277° West 435 501 36,000  Descending Kansas City Center
Sun 09:45:35 PM 38.9192 -89.4361 274° West 435 501 36,100  Climbing Kansas City Center
Sun 09:46:35 PM 38.9269 -89.5769 277° West 440 506 36,000 -50 Descending Kansas City Center
Sun 09:47:35 PM 38.9425 -89.7522 276° West 447 514 36,000  Level Kansas City Center
Sun 09:48:35 PM 38.9547 -89.9061 276° West 442 509 36,000  Level Kansas City Center
Sun 09:49:35 PM 38.9664 -90.0497 275° West 442 509 36,000  Level Kansas City Center
Sun 09:50:35 PM 38.9767 -90.2172 275° West 442 509 36,000  Level Kansas City Center
Sun 09:51:35 PM 38.9861 -90.3636 276° West 442 509 36,000  Level Kansas City Center
Sun 09:52:35 PM 39.0006 -90.5419 274° West 458 527 36,000 50 Level Kansas City Center
Sun 09:53:35 PM 39.0100 -90.7044 275° West 458 527 36,100  Climbing Kansas City Center
Sun 09:54:35 PM 39.0183 -90.8403 276° West 448 516 36,000 -50 Descending Kansas City Center
Sun 09:55:35 PM 39.0317 -91.0078 274° West 433 498 36,000  Level Kansas City Center
Sun 09:56:35 PM 39.0403 -91.1597 275° West 433 498 36,000  Level Kansas City Center
Sun 09:57:35 PM 39.0506 -91.3144 274° West 428 493 36,000  Level Kansas City Center
Sun 09:58:35 PM 39.0589 -91.4636 275° West 433 498 36,000  Level Kansas City Center
Sun 09:59:35 PM 39.0689 -91.6183 275° West 438 504 36,000  Level Kansas City Center
Sun 10:00:35 PM 39.0786 -91.7731 275° West 438 504 36,000  Level Kansas City Center
Sun 10:01:35 PM 39.0883 -91.9253 274° West 438 504 36,000  Level Kansas City Center
Sun 10:02:35 PM 39.0956 -92.0747 273° West 433 498 36,000  Level Kansas City Center
Sun 10:03:35 PM 39.1028 -92.2297 275° West 433 498 36,000  Level Kansas City Center
Sun 10:04:35 PM 39.1142 -92.3844 272° West 438 504 36,000  Level Kansas City Center
Sun 10:05:35 PM 39.1186 -92.5233 273° West 443 510 36,000  Level Kansas City Center
Sun 10:06:35 PM 39.1253 -92.6839 273° West 438 504 36,000  Level Kansas City Center
Sun 10:07:35 PM 39.1317 -92.8336 274° West 438 504 36,000 -50 Level Kansas City Center
Sun 10:08:35 PM 39.1400 -92.9939 275° West 438 504 35,900 50 Descending Kansas City Center
Sun 10:09:35 PM 39.1503 -93.1517 273° West 438 504 36,100 50 Climbing Kansas City Center
Sun 10:10:35 PM 39.1561 -93.3067 272° West 438 504 36,000 -50 Descending Kansas City Center
Sun 10:11:35 PM 39.1597 -93.4672 274° West 433 498 36,000  Level Kansas City Center
Sun 10:12:35 PM 39.1669 -93.6039 274° West 427 491 36,000  Level Kansas City Center
Sun 10:13:35 PM 39.1744 -93.7589 272° West 422 486 36,000  Level Kansas City Center
Sun 10:14:35 PM 39.1794 -93.9222 273° West 422 486 36,000  Level Kansas City Center
Sun 10:15:35 PM 39.1864 -94.0722 271° West 422 486 36,000  Level Kansas City Center
Sun 10:16:35 PM 39.1889 -94.2086 274° West 422 486 36,000  Level Kansas City Center
Sun 10:17:35 PM 39.1975 -94.3586 272° West 422 486 36,000  Level Kansas City Center
Sun 10:18:35 PM 39.2017 -94.5275 273° West 422 486 36,000  Level Kansas City Center
Sun 10:19:35 PM 39.2078 -94.6775 272° West 422 486 36,000  Level Kansas City Center
Sun 10:20:35 PM 39.2117 -94.8167 273° West 417 480 36,000  Level Kansas City Center
Sun 10:21:35 PM 39.2175 -94.9803 273° West 423 487 36,000  Level Kansas City Center
Sun 10:22:35 PM 39.2231 -95.1383 273° West 432 497 36,000  Level Kansas City Center
Sun 10:23:35 PM 39.2283 -95.2750 275° West 438 504 36,000  Level Kansas City Center
Sun 10:24:35 PM 39.2397 -95.4439 277° West 438 504 36,000  Level Kansas City Center
Sun 10:25:35 PM 39.2550 -95.5969 278° West 443 510 36,000  Level Kansas City Center
Sun 10:26:35 PM 39.2706 -95.7339 277° West 436 502 36,000 50 Level Kansas City Center
Sun 10:27:35 PM 39.2875 -95.9031 277° West 431 496 36,100  Climbing Kansas City Center
Sun 10:28:35 PM 39.3022 -96.0508 279° West 431 496 36,000 -50 Descending Kansas City Center
Sun 10:29:35 PM 39.3192 -96.1828 276° West 422 486 36,000  Level Kansas City Center
Sun 10:30:35 PM 39.3333 -96.3522 277° West 427 491 36,000  Level Kansas City Center
Sun 10:31:35 PM 39.3475 -96.5056 278° West 427 491 36,000  Level Kansas City Center
Sun 10:32:35 PM 39.3639 -96.6564 278° West 427 491 36,000  Level Kansas City Center
Sun 10:33:35 PM 39.3797 -96.8097 276° West 427 491 36,000  Level Kansas City Center
Sun 10:34:35 PM 39.3914 -96.9581 277° West 427 491 36,000  Level Kansas City Center
Sun 10:35:35 PM 39.4050 -97.0981 277° West 427 491 36,000  Level Kansas City Center
Sun 10:36:35 PM 39.4203 -97.2517 276° West 427 491 36,000  Level Kansas City Center
Sun 10:37:35 PM 39.4333 -97.4161 276° West 427 491 36,000  Level Kansas City Center
Sun 10:38:35 PM 39.4461 -97.5672 276° West 427 491 36,000  Level Kansas City Center
Sun 10:40:25 PM 39.4681 -97.8350 276° West 425 489 36,000  Level Minneapolis Center
Sun 10:41:26 PM 39.4808 -97.9861 276° West 423 487 36,000  Level Minneapolis Center
Sun 10:42:28 PM 39.4933 -98.1378 276° West 423 487 36,000  Level Minneapolis Center
Sun 10:43:29 PM 39.5050 -98.2883 276° West 422 486 36,000  Level Minneapolis Center
Sun 10:44:16 PM 39.5156 -98.4100 276° West 421 484 36,000  Level Denver Center
Sun 10:45:18 PM 39.5272 -98.5614 276° West 421 484 36,000  Level Denver Center
Sun 10:46:20 PM 39.5386 -98.7131 276° West 423 487 36,000  Level Denver Center
Sun 10:47:22 PM 39.5528 -98.8947 276° West 423 487 36,000  Level Denver Center
Sun 10:48:24 PM 39.5639 -99.0444 275° West 419 482 36,000  Level Denver Center
Sun 10:49:26 PM 39.5747 -99.1967 275° West 422 486 36,000  Level Denver Center
Sun 10:50:28 PM 39.5858 -99.3486 275° West 423 487 36,000  Level Denver Center
Sun 10:51:30 PM 39.5967 -99.4989 275° West 421 484 36,000  Level Denver Center
Sun 10:52:32 PM 39.6069 -99.6500 275° West 421 484 36,000  Level Denver Center
Sun 10:53:34 PM 39.6169 -99.8014 275° West 421 484 36,000 48 Level Denver Center
Sun 10:54:36 PM 39.6292 -99.9781 275° West 422 486 36,100  Climbing Denver Center
Sun 10:55:37 PM 39.6378 -100.1203 275° West 417 480 36,000 -49 Descending Denver Center
Sun 10:56:39 PM 39.6492 -100.2817 274° West 407 468 36,000  Level Denver Center
Sun 10:57:41 PM 39.6572 -100.4186 275° West 401 461 36,000  Level Denver Center
Sun 10:58:43 PM 39.6675 -100.5794 274° West 400 460 36,000  Level Denver Center
Sun 10:59:45 PM 39.6758 -100.7206 274° West 405 466 36,000 49 Level Denver Center
Sun 11:00:46 PM 39.6836 -100.8628 274° West 410 472 36,100  Climbing Denver Center
Sun 11:01:48 PM 39.6933 -101.0278 274° West 410 472 36,000 -48 Descending Denver Center
Sun 11:02:50 PM 39.7008 -101.1692 274° West 409 471 36,000  Level Denver Center
Sun 11:03:51 PM 39.7097 -101.3361 274° West 412 474 36,000  Level Denver Center
Sun 11:04:53 PM 39.7175 -101.4769 250° West 411 473 36,000  Level Denver Center
Sun 11:05:55 PM 39.6789 -101.6122 250° West 411 473 36,000  Level Denver Center
Sun 11:06:56 PM 39.6369 -101.7650 259° West 405 466 36,000  Level Denver Center
Sun 11:07:58 PM 39.6175 -101.8989 257° West 394 453 36,000 48 Level Denver Center
Sun 11:09:00 PM 39.5897 -102.0567 258° West 400 460 36,100  Climbing Denver Center
Sun 11:10:01 PM 39.5678 -102.1936 258° West 404 465 36,000 -49 Descending Denver Center
Sun 11:11:03 PM 39.5419 -102.3531 259° West 404 465 36,000  Level Denver Center
Sun 11:12:04 PM 39.5203 -102.4947 260° West 402 463 36,000  Level Denver Center
Sun 11:13:06 PM 39.5006 -102.6403 260° West 406 467 36,000  Level Denver Center
Sun 11:14:07 PM 39.4800 -102.7858 260° West 407 468 36,000  Level Denver Center
Sun 11:15:08 PM 39.4597 -102.9306 261° West 406 467 36,000  Level Denver Center
Sun 11:16:10 PM 39.4422 -103.0750 264° West 403 464 36,000  Level Denver Center
Sun 11:17:11 PM 39.4308 -103.2189 271° West 400 460 36,000  Level Denver Center
Sun 11:18:13 PM 39.4325 -103.3628 275° West 399 459 36,000  Level Denver Center
Sun 11:19:14 PM 39.4414 -103.5061 274° West 394 453 36,000  Level Denver Center
Sun 11:20:16 PM 39.4489 -103.6519 274° West 400 460 36,000  Level Denver Center
Sun 11:21:17 PM 39.4575 -103.7992 274° West 404 465 36,000  Level Denver Center
Sun 11:22:19 PM 39.4647 -103.9450 274° West 404 465 36,000  Level Denver Center
Sun 11:23:20 PM 39.4722 -104.0892 274° West 398 458 36,000  Level Denver Center
Sun 11:24:21 PM 39.4817 -104.2606 274° West 413 475 36,000  Level Denver Center
Sun 11:25:23 PM 39.4889 -104.4097 274° West 409 471 36,000  Level Denver Center
Sun 11:26:24 PM 39.4964 -104.5578 273° West 407 468 36,000  Level Denver Center
Sun 11:27:25 PM 39.5019 -104.7078 273° West 404 465 36,000  Level Denver Center
Sun 11:28:27 PM 39.5075 -104.8358 274° West 411 473 36,000  Level Denver Center
Sun 11:29:28 PM 39.5147 -104.9869 273° West 414 476 36,000  Level Denver Center
Sun 11:30:30 PM 39.5225 -105.1581 273° West 407 468 36,000  Level Denver Center
Sun 11:31:31 PM 39.5281 -105.3069 273° West 408 470 36,000  Level Denver Center
Sun 11:32:32 PM 39.5336 -105.4564 273° West 411 473 36,000  Level Denver Center
Sun 11:33:34 PM 39.5394 -105.6058 273° West 411 473 36,000  Level Denver Center
Sun 11:34:35 PM 39.5453 -105.7564 273° West 414 476 36,000  Level Denver Center
Sun 11:35:37 PM 39.5519 -105.9050 273° West 411 473 36,000  Level Denver Center
Sun 11:36:38 PM 39.5583 -106.0558 273° West 414 476 36,000  Level Denver Center
Sun 11:37:40 PM 39.5639 -106.2036 273° West 410 472 36,000  Level Denver Center
Sun 11:38:41 PM 39.5692 -106.3503 272° West 408 470 36,000  Level Denver Center
Sun 11:39:42 PM 39.5733 -106.4972 272° West 408 470 36,000  Level Denver Center
Sun 11:40:44 PM 39.5775 -106.6642 273° West 409 471 36,000  Level Denver Center
Sun 11:41:45 PM 39.5822 -106.8067 271° West 413 475 36,000  Level Denver Center
Sun 11:42:47 PM 39.5836 -106.9486 273° West 426 490 36,000  Level Denver Center
Sun 11:43:48 PM 39.5894 -107.1142 272° West 414 476 36,000  Level Denver Center
Sun 11:44:49 PM 39.5928 -107.2569 272° West 413 475 36,000  Level Denver Center
Sun 11:45:51 PM 39.5969 -107.4233 271° West 414 476 36,000  Level Denver Center
Sun 11:46:52 PM 39.5994 -107.5661 272° West 414 476 36,000  Level Denver Center
Sun 11:47:54 PM 39.6042 -107.7333 271° West 415 478 36,000  Level Denver Center
Sun 11:48:55 PM 39.6067 -107.8781 271° West 419 482 36,000  Level Denver Center
Sun 11:49:57 PM 39.6089 -108.0239 272° West 421 484 36,000  Level Denver Center
Sun 11:50:58 PM 39.6125 -108.1919 271° West 420 483 36,000  Level Denver Center
Sun 11:52:00 PM 39.6139 -108.3364 272° West 419 482 36,000  Level Denver Center
Sun 11:53:01 PM 39.6172 -108.5053 271° West 419 482 36,000  Level Denver Center
Sun 11:54:03 PM 39.6192 -108.6497 270° West 418 481 36,000  Level Denver Center
Sun 11:55:04 PM 39.6192 -108.8069 271° West 426 490 36,000  Level Denver Center
Sun 11:56:05 PM 39.6217 -108.9531 271° West 419 482 36,000  Level Denver Center
Sun 11:57:07 PM 39.6239 -109.1211 271° West 418 481 36,000  Level Denver Center
Sun 11:58:08 PM 39.6253 -109.2653 270° West 419 482 36,000  Level Denver Center
Sun 11:59:10 PM 39.6258 -109.4100 271° West 419 482 36,000  Level Denver Center
Mon 12:00:11 AM 39.6269 -109.5811 270° West 423 487 36,000  Level Denver Center
Mon 12:01:12 AM 39.6275 -109.7283 270° West 426 490 36,000  Level Denver Center
Mon 12:02:14 AM 39.6281 -109.9014 270° West 430 495 36,000  Level Denver Center
Mon 12:03:15 AM 39.6286 -110.0500 270° West 431 496 36,000  Level Denver Center
Mon 12:04:17 AM 39.6278 -110.1981 270° West 430 495 36,000  Level Denver Center
Mon 12:05:18 AM 39.6278 -110.3714 270° West 431 496 36,000  Level Denver Center
Mon 12:06:19 AM 39.6272 -110.5194 270° West 430 495 36,000  Level Denver Center
Mon 12:07:21 AM 39.6267 -110.6908 270° West 427 491 36,000  Level Denver Center
Mon 12:08:22 AM 39.6261 -110.8389 270° West 428 493 36,000  Level Denver Center
Mon 12:09:41 AM 39.6261 -111.0356 269° West 428 493 36,000  Level Salt Lake Center
Mon 12:10:43 AM 39.6233 -111.2086 270° West 430 495 36,000  Level Salt Lake Center
Mon 12:11:44 AM 39.6222 -111.3639 269° West 429 494 36,000  Level Salt Lake Center
Mon 12:12:46 AM 39.6200 -111.5211 269° West 430 495 36,000  Level Salt Lake Center
Mon 12:13:47 AM 39.6186 -111.6786 269° West 432 497 36,000  Level Salt Lake Center
Mon 12:14:49 AM 39.6158 -111.8350 269° West 431 496 36,000  Level Salt Lake Center
Mon 12:15:51 AM 39.6139 -111.9914 268° West 430 495 36,000  Level Salt Lake Center
Mon 12:16:52 AM 39.6106 -112.1461 268° West 427 491 36,000  Level Salt Lake Center
Mon 12:17:54 AM 39.6072 -112.3017 269° West 427 491 36,000  Level Salt Lake Center
Mon 12:18:55 AM 39.6042 -112.4575 269° West 428 493 36,000  Level Salt Lake Center
Mon 12:19:57 AM 39.6006 -112.6403 268° West 429 494 36,000  Level Salt Lake Center
Mon 12:20:58 AM 39.5978 -112.7711 269° West 430 495 36,000  Level Salt Lake Center
Mon 12:22:00 AM 39.5947 -112.9261 268° West 426 490 36,000  Level Salt Lake Center
Mon 12:23:02 AM 39.5892 -113.1128 268° West 427 491 36,000  Level Salt Lake Center
Mon 12:24:03 AM 39.5856 -113.2694 268° West 428 493 36,000  Level Salt Lake Center
Mon 12:25:05 AM 39.5814 -113.4261 267° West 430 495 36,000  Level Salt Lake Center
Mon 12:26:06 AM 39.5758 -113.5847 268° West 433 498 36,000  Level Salt Lake Center
Mon 12:27:08 AM 39.5706 -113.7431 268° West 434 499 36,000  Level Salt Lake Center
Mon 12:28:10 AM 39.5661 -113.9006 268° West 433 498 36,000  Level Salt Lake Center
Mon 12:29:11 AM 39.5611 -114.0597 267° West 435 501 36,000  Level Salt Lake Center
Mon 12:30:13 AM 39.5550 -114.2175 268° West 434 499 36,000  Level Salt Lake Center
Mon 12:31:14 AM 39.5500 -114.3847 267° West 433 498 36,000  Level Salt Lake Center
Mon 12:32:16 AM 39.5444 -114.5364 267° West 438 504 36,000  Level Salt Lake Center
Mon 12:33:18 AM 39.5386 -114.6881 267° West 440 506 36,000  Level Salt Lake Center
Mon 12:34:19 AM 39.5306 -114.8694 267° West 441 507 36,000  Level Salt Lake Center
Mon 12:35:21 AM 39.5247 -115.0194 267° West 445 512 36,000  Level Salt Lake Center
Mon 12:36:22 AM 39.5172 -115.1983 267° West 445 512 36,000  Level Salt Lake Center
Mon 12:37:24 AM 39.5103 -115.3503 266° West 443 510 36,000  Level Salt Lake Center
Mon 12:38:26 AM 39.5000 -115.5308 266° West 447 514 36,000  Level Salt Lake Center
Mon 12:39:27 AM 39.4925 -115.6861 266° West 449 517 36,000  Level Salt Lake Center
Mon 12:40:29 AM 39.4844 -115.8378 266° West 445 512 36,000  Level Salt Lake Center
Mon 12:41:30 AM 39.4758 -116.0158 266° West 443 510 36,000  Level Salt Lake Center
Mon 12:42:32 AM 39.4675 -116.1678 266° West 443 510 36,000  Level Salt Lake Center
Mon 12:43:34 AM 39.4583 -116.3464 266° West 444 511 36,000  Level Salt Lake Center
Mon 12:44:35 AM 39.4497 -116.4989 266° West 444 511 36,000  Level Salt Lake Center
Mon 12:45:37 AM 39.4414 -116.6508 266° West 443 510 36,000  Level Salt Lake Center
Mon 12:46:38 AM 39.4306 -116.8308 266° West 446 513 36,000  Level Salt Lake Center
Mon 12:47:40 AM 39.4222 -116.9833 265° West 445 512 36,000  Level Salt Lake Center
Mon 12:48:41 AM 39.4111 -117.1606 266° West 443 510 36,000  Level Salt Lake Center
Mon 12:49:43 AM 39.4019 -117.3111 265° West 440 506 36,000  Level Salt Lake Center
Mon 12:50:44 AM 39.3914 -117.4750 266° West 440 506 36,000  Level Salt Lake Center
Mon 12:51:46 AM 39.3819 -117.6308 265° West 437 503 36,000  Level Salt Lake Center
Mon 12:52:47 AM 39.3714 -117.7842 266° West 433 498 36,000  Level Salt Lake Center
Mon 12:53:57 AM 39.3597 -117.9736 265° West 442 509 36,000  Level Oakland Center
Mon 12:54:58 AM 39.3489 -118.1297 265° West 442 509 36,000 -900 Level Oakland Center
Mon 12:55:57 AM 39.3381 -118.2833 266° West 442 509 34,200 -2,622 Descending Oakland Center
Mon 12:56:57 AM 39.3306 -118.4206 264° West 442 509 30,800 -2,132 Descending Oakland Center
Mon 12:57:58 AM 39.3172 -118.5792 265° West 442 509 29,900 -1,150 Descending Oakland Center
Mon 12:58:57 AM 39.3078 -118.7300 264° West 442 509 28,500 -958 Descending Oakland Center
Mon 12:59:57 AM 39.2958 -118.8725 265° West 425 489 28,000 -250 Descending Oakland Center
Mon 01:00:57 AM 39.2858 -119.0203 263° West 420 483 28,000  Level Oakland Center
Mon 01:01:57 AM 39.2697 -119.1844 264° West 426 490 28,000 -50 Level Oakland Center
Mon 01:02:57 AM 39.2589 -119.3133 264° West 421 484 27,900 -1,000 Descending Oakland Center
Mon 01:03:57 AM 39.2464 -119.4558 264° West 416 479 26,000 -1,900 Descending Oakland Center
Mon 01:04:57 AM 39.2356 -119.5900 264° West 401 461 24,100 -2,050 Descending Oakland Center
Mon 01:05:57 AM 39.2244 -119.7269 264° West 396 456 21,900 -2,000 Descending Oakland Center
Mon 01:06:57 AM 39.2133 -119.8558 264° West 385 443 20,100 -950 Descending Oakland Center
Mon 01:07:57 AM 39.2019 -119.9872 268° West 379 436 20,000 -950 Descending Oakland Center
Mon 01:08:57 AM 39.1989 -120.1267 262° West 365 420 18,200 -1,900 Descending Oakland Center
Mon 01:09:57 AM 39.1850 -120.2500 254° West 365 420 16,200 -1,100 Descending Oakland Center
Mon 01:10:57 AM 39.1567 -120.3736 253° West 359 413 16,000 -99 Descending Oakland Center
Mon 01:11:58 AM 39.1281 -120.4944 251° West 354 407 16,000  Level Oakland Center
Mon 01:12:57 AM 39.0972 -120.6122 249° West 359 413 16,000 -504 Level Oakland Center
Mon 01:13:57 AM 39.0619 -120.7300 249° West 359 413 15,000 -1,000 Descending Oakland Center
Mon 01:14:57 AM 39.0267 -120.8453 250° West 354 407 14,000 -1,050 Descending Oakland Center
Mon 01:15:57 AM 38.9956 -120.9547 249° West 348 400 12,900 -1,100 Descending Oakland Center
Mon 01:16:57 AM 38.9642 -121.0617 248° West 337 388 11,800 -1,200 Descending Oakland Center
Mon 01:17:57 AM 38.9328 -121.1603 249° West 322 371 10,500 -1,800 Descending Oakland Center
Mon 01:18:57 AM 38.9033 -121.2564 250° West 303 349 8,200 -2,638 Descending Oakland Center
Mon 01:20:18 AM 38.8667 -121.3833 243° Southwest 274 315 4,300 -2,222 Descending Northern Cal TRACON
Mon 01:21:12 AM 38.8333 -121.4667 252° West 246 283 3,200 -1,105 Descending Northern Cal TRACON
Mon 01:22:12 AM 38.8167 -121.5333 247° West 214 246 2,200 -700 Descending Northern Cal TRACON
Mon 01:23:12 AM 38.8000 -121.5833 195° South 195 224 1,800 -661 Descending Northern Cal TRACON
Mon 01:24:19 AM 38.7500 -121.6000 180° South 152 175 800 -756 Descending Northern Cal TRACON
Mon 01:25:19 AM 38.7000 -121.6000 180° South 130 150 200 -600 Descending Northern Cal TRACON

Login

Don't have an account? Register now (free) for customized features, flight alerts, and more!